createdAt,value
2023-04-07T00:01:11.060Z,4.27
2023-04-07T00:11:13.466Z,3.40
2023-04-07T00:21:15.546Z,4.00
2023-04-07T00:31:17.712Z,4.77
2023-04-07T00:41:19.953Z,5.37
2023-04-07T00:51:22.649Z,4.10
2023-04-07T01:01:33.834Z,4.60
2023-04-07T01:11:58.176Z,4.37
2023-04-07T01:22:00.997Z,5.73
2023-04-07T01:32:06.087Z,5.90
2023-04-07T01:42:09.149Z,5.30
2023-04-07T01:52:11.531Z,7.13
2023-04-07T02:02:13.691Z,8.13
2023-04-07T02:12:16.821Z,6.97
2023-04-07T02:22:39.312Z,8.13
2023-04-07T02:32:41.660Z,7.93
2023-04-07T02:42:44.627Z,7.93
2023-04-07T02:52:46.685Z,9.63
2023-04-07T03:02:50.960Z,9.17
2023-04-07T03:12:54.286Z,10.37
2023-04-07T03:22:56.547Z,7.40
2023-04-07T03:33:02.596Z,8.10
2023-04-07T03:43:12.290Z,8.60
2023-04-07T03:53:16.516Z,8.17
2023-04-07T04:03:19.145Z,7.07
2023-04-07T04:13:47.477Z,9.10
2023-04-07T04:23:49.740Z,9.73
2023-04-07T04:33:53.172Z,11.20
2023-04-07T04:43:57.469Z,11.97
2023-04-07T04:54:03.749Z,15.07
2023-04-07T05:04:06.321Z,16.57
2023-04-07T05:14:09.887Z,17.50
2023-04-07T05:24:16.049Z,17.45
2023-04-07T05:34:21.238Z,20.13
2023-04-07T05:44:28.648Z,22.83
2023-04-07T05:54:31.806Z,20.13
2023-04-07T06:04:37.061Z,24.70
2023-04-07T06:14:41.423Z,14.30
2023-04-07T06:24:43.755Z,12.10
2023-04-07T06:34:46.253Z,10.03
2023-04-07T06:44:48.457Z,10.43
2023-04-07T06:54:51.603Z,11.13
2023-04-07T07:04:53.753Z,9.83
2023-04-07T07:14:55.902Z,12.50
2023-04-07T07:24:58.047Z,10.93
2023-04-07T07:35:00.442Z,8.47
2023-04-07T07:45:02.628Z,9.20
2023-04-07T07:55:04.969Z,11.17
2023-04-07T08:05:07.717Z,7.83
2023-04-07T08:15:10.324Z,8.37
2023-04-07T08:25:12.533Z,7.73
2023-04-07T08:35:14.713Z,8.77
2023-04-07T08:45:18.727Z,7.23
2023-04-07T08:55:21.129Z,5.90
2023-04-07T09:05:24.992Z,5.77
2023-04-07T09:15:31.159Z,4.93
2023-04-07T09:25:34.396Z,3.67
2023-04-07T09:35:52.204Z,5.83
2023-04-07T09:46:08.387Z,4.60
2023-04-07T09:56:11.686Z,3.87
2023-04-07T10:06:13.988Z,3.27
2023-04-07T10:16:16.554Z,4.10
2023-04-07T10:26:23.777Z,5.17
2023-04-07T10:36:26.093Z,6.53
2023-04-07T10:46:49.485Z,6.77
2023-04-07T10:57:04.043Z,6.23
2023-04-07T11:07:07.209Z,5.93
2023-04-07T11:17:15.769Z,5.43
2023-04-07T11:27:17.958Z,5.25
2023-04-07T11:37:25.254Z,5.75
2023-04-07T11:47:56.500Z,5.77
2023-04-07T11:58:10.331Z,3.60
2023-04-07T12:08:14.655Z,5.40
2023-04-07T12:18:18.187Z,6.17
2023-04-07T12:28:23.152Z,7.37
2023-04-07T12:38:26.986Z,7.50
2023-04-07T12:48:29.114Z,4.97
2023-04-07T12:58:31.806Z,5.07
2023-04-07T13:08:37.574Z,6.47
2023-04-07T13:18:41.842Z,2.87
2023-04-07T13:28:45.950Z,1.90
2023-04-07T13:38:48.130Z,2.17
2023-04-07T13:48:50.961Z,1.93
2023-04-07T13:58:53.954Z,0.90
2023-04-07T14:09:08.642Z,1.30
2023-04-07T14:19:14.780Z,1.75
2023-04-07T14:29:17.030Z,1.93
2023-04-07T14:39:19.693Z,1.40
2023-04-07T14:49:21.934Z,1.00
2023-04-07T14:59:52.118Z,1.00
2023-04-07T15:09:54.252Z,1.70
2023-04-07T15:19:56.747Z,1.53
2023-04-07T15:29:59.039Z,1.90
2023-04-07T15:40:01.070Z,1.80
2023-04-07T15:50:03.601Z,1.63
2023-04-07T16:00:06.501Z,1.92
2023-04-07T16:10:09.238Z,2.20
2023-04-07T16:20:14.468Z,1.90
2023-04-07T16:30:17.160Z,2.13
2023-04-07T16:40:19.346Z,3.57
2023-04-07T16:50:22.738Z,3.63
2023-04-07T17:00:24.883Z,5.80
2023-04-07T17:10:27.439Z,4.40
2023-04-07T17:20:29.640Z,4.32
2023-04-07T17:30:32.045Z,5.05
2023-04-07T17:40:37.302Z,4.43
2023-04-07T17:50:39.685Z,6.27
2023-04-07T18:00:42.030Z,5.22
2023-04-07T18:10:44.211Z,13.10
2023-04-07T18:20:47.861Z,24.27
2023-04-07T18:30:59.724Z,34.90
2023-04-07T18:41:03.681Z,36.77
2023-04-07T18:51:07.555Z,43.67
2023-04-07T19:01:10.874Z,22.45
2023-04-07T19:11:13.462Z,16.33
2023-04-07T19:21:15.564Z,14.37
2023-04-07T19:31:17.812Z,14.73
2023-04-07T19:41:20.268Z,17.63
2023-04-07T19:51:29.526Z,18.90
2023-04-07T20:01:31.735Z,17.70
2023-04-07T20:11:35.028Z,17.10
2023-04-07T20:21:37.560Z,18.50
2023-04-07T20:31:41.126Z,18.70
2023-04-07T20:41:45.150Z,16.23
2023-04-07T20:51:47.475Z,18.60
2023-04-07T21:01:49.843Z,20.10
2023-04-07T21:11:53.267Z,19.40
2023-04-07T21:21:55.652Z,18.17
2023-04-07T21:31:58.190Z,19.53
2023-04-07T21:42:09.625Z,18.40
2023-04-07T21:52:11.765Z,17.83
2023-04-07T22:02:14.070Z,20.40
2023-04-07T22:12:16.277Z,17.87
2023-04-07T22:22:18.661Z,18.70
2023-04-07T22:32:20.812Z,17.77
2023-04-07T22:42:22.986Z,20.13
2023-04-07T22:52:25.049Z,22.33
2023-04-07T23:02:27.201Z,26.57
2023-04-07T23:12:29.447Z,20.47
2023-04-07T23:22:31.608Z,20.90
2023-04-07T23:32:33.777Z,22.00
2023-04-07T23:42:36.802Z,21.23
2023-04-07T23:52:38.872Z,22.97
